sensor_id;sensor_type;location;lat;lon;timestamp;P1;durP1;ratioP1;P2;durP2;ratioP2
75139;SDS011;63714;55.812;37.658;2023-04-25T11:09:43;3.83;;;2.50;;
75139;SDS011;63714;55.812;37.658;2023-04-25T11:12:12;6.03;;;2.60;;
75139;SDS011;63714;55.812;37.658;2023-04-25T11:14:39;5.00;;;2.53;;
75139;SDS011;63714;55.812;37.658;2023-04-25T11:17:04;5.68;;;2.63;;
75139;SDS011;63714;55.812;37.658;2023-04-25T11:19:31;4.10;;;2.35;;
75139;SDS011;63714;55.812;37.658;2023-04-25T11:22:00;7.43;;;2.50;;
75139;SDS011;63714;55.812;37.658;2023-04-25T11:24:33;4.63;;;2.42;;
75139;SDS011;63714;55.812;37.658;2023-04-25T11:27:00;3.33;;;2.53;;
75139;SDS011;63714;55.812;37.658;2023-04-25T11:29:32;5.35;;;2.40;;
75139;SDS011;63714;55.812;37.658;2023-04-25T11:31:59;7.07;;;2.58;;
75139;SDS011;63714;55.812;37.658;2023-04-25T11:34:26;5.93;;;2.47;;
75139;SDS011;63714;55.812;37.658;2023-04-25T11:36:55;3.25;;;2.13;;
75139;SDS011;63714;55.812;37.658;2023-04-25T11:39:23;3.67;;;2.75;;
75139;SDS011;63714;55.812;37.658;2023-04-25T11:41:50;6.60;;;2.38;;
75139;SDS011;63714;55.812;37.658;2023-04-25T11:44:16;5.05;;;2.20;;
75139;SDS011;63714;55.812;37.658;2023-04-25T11:46:43;6.25;;;2.95;;
75139;SDS011;63714;55.812;37.658;2023-04-25T11:49:09;5.97;;;2.65;;
75139;SDS011;63714;55.812;37.658;2023-04-25T11:51:41;4.68;;;2.20;;
75139;SDS011;63714;55.812;37.658;2023-04-25T11:54:09;5.80;;;2.65;;
75139;SDS011;63714;55.812;37.658;2023-04-25T11:56:35;5.43;;;2.25;;
75139;SDS011;63714;55.812;37.658;2023-04-25T11:59:02;3.38;;;2.05;;
75139;SDS011;63714;55.812;37.658;2023-04-25T12:01:29;5.80;;;2.72;;
75139;SDS011;63714;55.812;37.658;2023-04-25T12:03:56;5.28;;;2.38;;
75139;SDS011;63714;55.812;37.658;2023-04-25T12:06:28;9.00;;;2.90;;
75139;SDS011;63714;55.812;37.658;2023-04-25T12:09:03;4.75;;;2.53;;
75139;SDS011;63714;55.812;37.658;2023-04-25T12:11:30;5.38;;;2.15;;
75139;SDS011;63714;55.812;37.658;2023-04-25T12:14:02;4.43;;;2.38;;
75139;SDS011;63714;55.812;37.658;2023-04-25T12:16:30;5.07;;;2.47;;
75139;SDS011;63714;55.812;37.658;2023-04-25T12:19:05;4.82;;;2.63;;
75139;SDS011;63714;55.812;37.658;2023-04-25T12:21:32;6.72;;;2.25;;
75139;SDS011;63714;55.812;37.658;2023-04-25T12:24:08;3.78;;;2.50;;
75139;SDS011;63714;55.812;37.658;2023-04-25T12:29:22;4.28;;;2.42;;
75139;SDS011;63714;55.812;37.658;2023-04-25T12:31:49;5.15;;;2.25;;
75139;SDS011;63714;55.812;37.658;2023-04-25T12:34:16;3.67;;;2.30;;
75139;SDS011;63714;55.812;37.658;2023-04-25T12:36:43;4.70;;;2.10;;
75139;SDS011;63714;55.812;37.658;2023-04-25T12:39:11;5.22;;;3.03;;
75139;SDS011;63714;55.812;37.658;2023-04-25T12:41:40;6.55;;;2.50;;
75139;SDS011;63714;55.812;37.658;2023-04-25T12:44:06;4.63;;;3.05;;
75139;SDS011;63714;55.812;37.658;2023-04-25T12:46:31;5.22;;;2.80;;
75139;SDS011;63714;55.812;37.658;2023-04-25T12:48:57;5.10;;;2.60;;
75139;SDS011;63714;55.812;37.658;2023-04-25T12:51:22;8.05;;;2.53;;
75139;SDS011;63714;55.812;37.658;2023-04-25T12:53:50;7.35;;;2.42;;
75139;SDS011;63714;55.812;37.658;2023-04-25T12:56:16;5.07;;;2.47;;
75139;SDS011;63714;55.812;37.658;2023-04-25T12:58:42;5.65;;;2.25;;
75139;SDS011;63714;55.812;37.658;2023-04-25T13:01:09;7.53;;;3.10;;
75139;SDS011;63714;55.812;37.658;2023-04-25T13:03:35;4.53;;;2.22;;
75139;SDS011;63714;55.812;37.658;2023-04-25T13:06:00;7.07;;;2.78;;
75139;SDS011;63714;55.812;37.658;2023-04-25T13:08:26;5.15;;;2.80;;
75139;SDS011;63714;55.812;37.658;2023-04-25T13:10:51;7.45;;;2.90;;
75139;SDS011;63714;55.812;37.658;2023-04-25T13:13:17;4.13;;;2.15;;
75139;SDS011;63714;55.812;37.658;2023-04-25T13:15:43;5.47;;;2.53;;
75139;SDS011;63714;55.812;37.658;2023-04-25T13:18:08;4.72;;;2.75;;
75139;SDS011;63714;55.812;37.658;2023-04-25T13:20:34;4.25;;;2.70;;
75139;SDS011;63714;55.812;37.658;2023-04-25T13:23:00;7.07;;;2.60;;
75139;SDS011;63714;55.812;37.658;2023-04-25T13:25:25;4.82;;;2.80;;
75139;SDS011;63714;55.812;37.658;2023-04-25T13:27:51;5.18;;;2.72;;
75139;SDS011;63714;55.812;37.658;2023-04-25T13:30:17;4.30;;;2.70;;
75139;SDS011;63714;55.812;37.658;2023-04-25T13:32:42;3.50;;;2.63;;
75139;SDS011;63714;55.812;37.658;2023-04-25T13:35:11;6.88;;;3.13;;
75139;SDS011;63714;55.812;37.658;2023-04-25T13:37:38;4.95;;;3.53;;
75139;SDS011;63714;55.812;37.658;2023-04-25T13:40:05;6.47;;;3.85;;
75139;SDS011;63714;55.812;37.658;2023-04-25T13:42:34;5.40;;;3.20;;
75139;SDS011;63714;55.812;37.658;2023-04-25T13:45:00;6.03;;;2.90;;
75139;SDS011;63714;55.812;37.658;2023-04-25T13:47:26;4.15;;;2.90;;
75139;SDS011;63714;55.812;37.658;2023-04-25T13:49:52;6.22;;;3.63;;
75139;SDS011;63714;55.812;37.658;2023-04-25T13:52:18;7.07;;;3.17;;
75139;SDS011;63714;55.812;37.658;2023-04-25T13:54:44;7.88;;;3.35;;
75139;SDS011;63714;55.812;37.658;2023-04-25T13:57:10;3.50;;;2.65;;
75139;SDS011;63714;55.812;37.658;2023-04-25T13:59:37;4.72;;;2.78;;
75139;SDS011;63714;55.812;37.658;2023-04-25T14:02:03;4.30;;;3.15;;
75139;SDS011;63714;55.812;37.658;2023-04-25T14:04:28;4.25;;;2.80;;
75139;SDS011;63714;55.812;37.658;2023-04-25T14:06:55;5.28;;;2.55;;
75139;SDS011;63714;55.812;37.658;2023-04-25T14:09:20;6.65;;;2.78;;
75139;SDS011;63714;55.812;37.658;2023-04-25T14:11:53;3.63;;;2.80;;
75139;SDS011;63714;55.812;37.658;2023-04-25T14:14:20;9.18;;;2.53;;
75139;SDS011;63714;55.812;37.658;2023-04-25T14:16:47;7.07;;;2.60;;
75139;SDS011;63714;55.812;37.658;2023-04-25T14:19:17;4.63;;;2.63;;
75139;SDS011;63714;55.812;37.658;2023-04-25T14:21:43;3.72;;;3.15;;
75139;SDS011;63714;55.812;37.658;2023-04-25T14:24:09;4.78;;;3.10;;
75139;SDS011;63714;55.812;37.658;2023-04-25T14:26:38;3.88;;;2.80;;
75139;SDS011;63714;55.812;37.658;2023-04-25T14:29:06;7.38;;;3.40;;
75139;SDS011;63714;55.812;37.658;2023-04-25T14:31:33;6.05;;;3.20;;
75139;SDS011;63714;55.812;37.658;2023-04-25T14:34:00;6.68;;;3.30;;
75139;SDS011;63714;55.812;37.658;2023-04-25T14:36:29;5.40;;;3.30;;
75139;SDS011;63714;55.812;37.658;2023-04-25T14:38:58;5.32;;;3.72;;
75139;SDS011;63714;55.812;37.658;2023-04-25T14:41:24;5.43;;;4.00;;
75139;SDS011;63714;55.812;37.658;2023-04-25T14:43:51;6.68;;;4.03;;
75139;SDS011;63714;55.812;37.658;2023-04-25T14:46:18;4.25;;;2.97;;
75139;SDS011;63714;55.812;37.658;2023-04-25T14:48:44;7.80;;;3.78;;
75139;SDS011;63714;55.812;37.658;2023-04-25T14:51:10;7.35;;;3.13;;
75139;SDS011;63714;55.812;37.658;2023-04-25T14:53:36;5.38;;;3.50;;
75139;SDS011;63714;55.812;37.658;2023-04-25T14:56:02;6.32;;;3.17;;
75139;SDS011;63714;55.812;37.658;2023-04-25T14:58:28;5.18;;;3.65;;
75139;SDS011;63714;55.812;37.658;2023-04-25T15:00:54;3.75;;;3.42;;
75139;SDS011;63714;55.812;37.658;2023-04-25T15:03:19;4.25;;;3.28;;
75139;SDS011;63714;55.812;37.658;2023-04-25T15:05:45;6.72;;;3.13;;
75139;SDS011;63714;55.812;37.658;2023-04-25T15:08:11;5.72;;;3.30;;
75139;SDS011;63714;55.812;37.658;2023-04-25T15:10:36;6.55;;;3.60;;
75139;SDS011;63714;55.812;37.658;2023-04-25T15:13:02;5.97;;;2.65;;
75139;SDS011;63714;55.812;37.658;2023-04-25T15:15:29;5.65;;;2.88;;
75139;SDS011;63714;55.812;37.658;2023-04-25T15:17:54;4.35;;;2.75;;
75139;SDS011;63714;55.812;37.658;2023-04-25T15:20:20;5.32;;;2.92;;
75139;SDS011;63714;55.812;37.658;2023-04-25T15:22:46;4.63;;;2.42;;
75139;SDS011;63714;55.812;37.658;2023-04-25T15:25:14;3.47;;;2.70;;
75139;SDS011;63714;55.812;37.658;2023-04-25T15:27:43;5.25;;;2.38;;
75139;SDS011;63714;55.812;37.658;2023-04-25T15:30:12;5.65;;;2.70;;
75139;SDS011;63714;55.812;37.658;2023-04-25T15:32:44;4.60;;;2.55;;
75139;SDS011;63714;55.812;37.658;2023-04-25T15:35:11;5.97;;;2.85;;
75139;SDS011;63714;55.812;37.658;2023-04-25T15:37:37;6.00;;;2.83;;
75139;SDS011;63714;55.812;37.658;2023-04-25T15:40:05;5.05;;;2.80;;
75139;SDS011;63714;55.812;37.658;2023-04-25T15:42:47;4.97;;;2.33;;
75139;SDS011;63714;55.812;37.658;2023-04-25T15:45:19;6.75;;;2.42;;
75139;SDS011;63714;55.812;37.658;2023-04-25T15:48:04;11.48;;;2.75;;
75139;SDS011;63714;55.812;37.658;2023-04-25T15:50:30;4.55;;;2.80;;
75139;SDS011;63714;55.812;37.658;2023-04-25T15:52:55;4.13;;;2.45;;
75139;SDS011;63714;55.812;37.658;2023-04-25T15:55:22;3.65;;;2.63;;
75139;SDS011;63714;55.812;37.658;2023-04-25T15:57:50;9.15;;;2.90;;
75139;SDS011;63714;55.812;37.658;2023-04-25T16:00:17;7.88;;;2.75;;
75139;SDS011;63714;55.812;37.658;2023-04-25T16:02:44;8.55;;;2.70;;
75139;SDS011;63714;55.812;37.658;2023-04-25T16:05:10;5.80;;;3.35;;
75139;SDS011;63714;55.812;37.658;2023-04-25T16:07:37;8.30;;;3.72;;
75139;SDS011;63714;55.812;37.658;2023-04-25T16:10:03;7.35;;;3.13;;
75139;SDS011;63714;55.812;37.658;2023-04-25T16:12:30;5.65;;;3.40;;
75139;SDS011;63714;55.812;37.658;2023-04-25T16:14:56;7.18;;;3.42;;
75139;SDS011;63714;55.812;37.658;2023-04-25T16:17:25;7.35;;;3.30;;
75139;SDS011;63714;55.812;37.658;2023-04-25T16:19:53;7.32;;;3.05;;
75139;SDS011;63714;55.812;37.658;2023-04-25T16:22:19;4.72;;;3.15;;
75139;SDS011;63714;55.812;37.658;2023-04-25T16:24:45;10.50;;;3.15;;
75139;SDS011;63714;55.812;37.658;2023-04-25T16:27:11;10.68;;;3.45;;
75139;SDS011;63714;55.812;37.658;2023-04-25T16:29:37;5.10;;;2.85;;
75139;SDS011;63714;55.812;37.658;2023-04-25T16:32:03;8.20;;;2.85;;
75139;SDS011;63714;55.812;37.658;2023-04-25T16:34:29;5.07;;;3.08;;
75139;SDS011;63714;55.812;37.658;2023-04-25T16:36:55;10.23;;;3.35;;
75139;SDS011;63714;55.812;37.658;2023-04-25T16:39:21;5.53;;;2.97;;
75139;SDS011;63714;55.812;37.658;2023-04-25T16:41:47;8.73;;;3.42;;
75139;SDS011;63714;55.812;37.658;2023-04-25T16:44:13;10.48;;;3.28;;
75139;SDS011;63714;55.812;37.658;2023-04-25T16:46:39;10.48;;;3.75;;
75139;SDS011;63714;55.812;37.658;2023-04-25T16:49:09;8.80;;;3.30;;
75139;SDS011;63714;55.812;37.658;2023-04-25T16:51:39;14.20;;;3.38;;
75139;SDS011;63714;55.812;37.658;2023-04-25T16:54:04;18.30;;;4.28;;
75139;SDS011;63714;55.812;37.658;2023-04-25T16:56:30;12.73;;;3.80;;
75139;SDS011;63714;55.812;37.658;2023-04-25T16:58:56;12.40;;;3.80;;
75139;SDS011;63714;55.812;37.658;2023-04-25T17:01:21;12.25;;;3.35;;
75139;SDS011;63714;55.812;37.658;2023-04-25T17:03:47;9.25;;;4.10;;
75139;SDS011;63714;55.812;37.658;2023-04-25T17:06:13;12.15;;;3.92;;
75139;SDS011;63714;55.812;37.658;2023-04-25T17:08:39;11.73;;;3.42;;
75139;SDS011;63714;55.812;37.658;2023-04-25T17:11:06;14.32;;;4.72;;
75139;SDS011;63714;55.812;37.658;2023-04-25T17:13:33;10.15;;;4.03;;
75139;SDS011;63714;55.812;37.658;2023-04-25T17:15:58;7.05;;;3.72;;
75139;SDS011;63714;55.812;37.658;2023-04-25T17:18:25;6.38;;;3.08;;
75139;SDS011;63714;55.812;37.658;2023-04-25T17:20:51;9.15;;;3.88;;
75139;SDS011;63714;55.812;37.658;2023-04-25T17:23:17;5.35;;;3.03;;
75139;SDS011;63714;55.812;37.658;2023-04-25T17:25:43;5.20;;;2.55;;
75139;SDS011;63714;55.812;37.658;2023-04-25T17:28:09;9.25;;;3.30;;
75139;SDS011;63714;55.812;37.658;2023-04-25T17:30:34;6.07;;;2.67;;
75139;SDS011;63714;55.812;37.658;2023-04-25T17:33:00;6.15;;;2.20;;
75139;SDS011;63714;55.812;37.658;2023-04-25T17:35:27;5.80;;;2.40;;
75139;SDS011;63714;55.812;37.658;2023-04-25T17:37:53;8.63;;;2.63;;
75139;SDS011;63714;55.812;37.658;2023-04-25T17:40:19;6.50;;;3.08;;
75139;SDS011;63714;55.812;37.658;2023-04-25T17:42:45;3.05;;;2.75;;
75139;SDS011;63714;55.812;37.658;2023-04-25T17:45:10;6.65;;;2.47;;
75139;SDS011;63714;55.812;37.658;2023-04-25T17:47:38;4.25;;;2.53;;
75139;SDS011;63714;55.812;37.658;2023-04-25T17:50:05;3.50;;;2.22;;
75139;SDS011;63714;55.812;37.658;2023-04-25T17:52:31;2.35;;;1.80;;
75139;SDS011;63714;55.812;37.658;2023-04-25T17:54:57;4.53;;;2.10;;
75139;SDS011;63714;55.812;37.658;2023-04-25T17:57:23;5.13;;;2.33;;
75139;SDS011;63714;55.812;37.658;2023-04-25T17:59:49;4.47;;;2.70;;
75139;SDS011;63714;55.812;37.658;2023-04-25T18:02:15;4.35;;;3.10;;
75139;SDS011;63714;55.812;37.658;2023-04-25T18:04:41;6.05;;;2.80;;
75139;SDS011;63714;55.812;37.658;2023-04-25T18:07:06;4.78;;;2.90;;
75139;SDS011;63714;55.812;37.658;2023-04-25T18:09:32;5.85;;;3.10;;
75139;SDS011;63714;55.812;37.658;2023-04-25T18:11:58;3.92;;;3.13;;
75139;SDS011;63714;55.812;37.658;2023-04-25T18:14:25;6.65;;;3.28;;
75139;SDS011;63714;55.812;37.658;2023-04-25T18:16:51;6.70;;;3.63;;
75139;SDS011;63714;55.812;37.658;2023-04-25T18:19:18;2.95;;;2.67;;
75139;SDS011;63714;55.812;37.658;2023-04-25T18:21:51;5.90;;;3.25;;
75139;SDS011;63714;55.812;37.658;2023-04-25T18:24:19;5.25;;;2.75;;
75139;SDS011;63714;55.812;37.658;2023-04-25T18:26:48;3.55;;;3.08;;
75139;SDS011;63714;55.812;37.658;2023-04-25T18:29:15;7.07;;;3.60;;
75139;SDS011;63714;55.812;37.658;2023-04-25T18:31:43;5.78;;;2.83;;
75139;SDS011;63714;55.812;37.658;2023-04-25T18:34:09;5.70;;;3.05;;
75139;SDS011;63714;55.812;37.658;2023-04-25T18:36:35;6.07;;;3.10;;
75139;SDS011;63714;55.812;37.658;2023-04-25T18:39:05;5.95;;;3.20;;
75139;SDS011;63714;55.812;37.658;2023-04-25T18:41:31;3.90;;;3.05;;
75139;SDS011;63714;55.812;37.658;2023-04-25T18:43:59;6.40;;;3.00;;
75139;SDS011;63714;55.812;37.658;2023-04-25T18:46:32;7.05;;;3.75;;
75139;SDS011;63714;55.812;37.658;2023-04-25T18:48:59;8.13;;;4.18;;
75139;SDS011;63714;55.812;37.658;2023-04-25T18:51:28;4.70;;;3.40;;
75139;SDS011;63714;55.812;37.658;2023-04-25T18:56:26;7.97;;;4.03;;
75139;SDS011;63714;55.812;37.658;2023-04-25T18:58:53;4.53;;;3.70;;
75139;SDS011;63714;55.812;37.658;2023-04-25T19:01:24;6.70;;;3.47;;
75139;SDS011;63714;55.812;37.658;2023-04-25T19:03:54;6.30;;;3.22;;
75139;SDS011;63714;55.812;37.658;2023-04-25T19:06:25;5.97;;;3.47;;
75139;SDS011;63714;55.812;37.658;2023-04-25T19:08:54;5.95;;;3.67;;
75139;SDS011;63714;55.812;37.658;2023-04-25T19:11:21;4.35;;;3.33;;
75139;SDS011;63714;55.812;37.658;2023-04-25T19:13:48;6.38;;;3.35;;
75139;SDS011;63714;55.812;37.658;2023-04-25T19:16:14;4.32;;;3.63;;
75139;SDS011;63714;55.812;37.658;2023-04-25T19:18:41;5.90;;;3.53;;
75139;SDS011;63714;55.812;37.658;2023-04-25T19:21:07;6.85;;;4.10;;
75139;SDS011;63714;55.812;37.658;2023-04-25T19:23:33;6.57;;;4.18;;
75139;SDS011;63714;55.812;37.658;2023-04-25T19:25:59;6.68;;;3.67;;
75139;SDS011;63714;55.812;37.658;2023-04-25T19:28:25;6.55;;;3.97;;
75139;SDS011;63714;55.812;37.658;2023-04-25T19:30:51;4.90;;;3.85;;
75139;SDS011;63714;55.812;37.658;2023-04-25T19:33:18;6.35;;;3.53;;
75139;SDS011;63714;55.812;37.658;2023-04-25T19:35:44;7.88;;;3.70;;
75139;SDS011;63714;55.812;37.658;2023-04-25T19:38:09;7.70;;;3.97;;
75139;SDS011;63714;55.812;37.658;2023-04-25T19:40:35;7.72;;;3.85;;
75139;SDS011;63714;55.812;37.658;2023-04-25T19:43:01;5.65;;;3.75;;
75139;SDS011;63714;55.812;37.658;2023-04-25T19:45:27;4.57;;;2.65;;
75139;SDS011;63714;55.812;37.658;2023-04-25T19:47:52;7.65;;;3.20;;
75139;SDS011;63714;55.812;37.658;2023-04-25T19:50:19;3.90;;;2.30;;
75139;SDS011;63714;55.812;37.658;2023-04-25T19:52:52;8.18;;;2.58;;
75139;SDS011;63714;55.812;37.658;2023-04-25T19:55:22;3.35;;;2.53;;
75139;SDS011;63714;55.812;37.658;2023-04-25T19:57:59;4.78;;;2.80;;
75139;SDS011;63714;55.812;37.658;2023-04-25T20:00:25;3.40;;;2.60;;
75139;SDS011;63714;55.812;37.658;2023-04-25T20:02:51;4.25;;;2.15;;
75139;SDS011;63714;55.812;37.658;2023-04-25T20:05:16;4.43;;;2.28;;
75139;SDS011;63714;55.812;37.658;2023-04-25T20:07:42;6.68;;;2.47;;
75139;SDS011;63714;55.812;37.658;2023-04-25T20:10:09;5.82;;;3.22;;
75139;SDS011;63714;55.812;37.658;2023-04-25T20:12:38;5.05;;;2.55;;
75139;SDS011;63714;55.812;37.658;2023-04-25T20:15:07;7.03;;;2.50;;
75139;SDS011;63714;55.812;37.658;2023-04-25T20:17:34;4.43;;;2.65;;
75139;SDS011;63714;55.812;37.658;2023-04-25T20:20:01;3.67;;;2.63;;
75139;SDS011;63714;55.812;37.658;2023-04-25T20:22:31;4.95;;;2.38;;
75139;SDS011;63714;55.812;37.658;2023-04-25T20:25:02;6.15;;;2.10;;
75139;SDS011;63714;55.812;37.658;2023-04-25T20:27:38;3.03;;;2.47;;
75139;SDS011;63714;55.812;37.658;2023-04-25T20:30:05;3.53;;;2.35;;
75139;SDS011;63714;55.812;37.658;2023-04-25T20:32:37;2.50;;;2.25;;
75139;SDS011;63714;55.812;37.658;2023-04-25T20:35:08;3.92;;;2.42;;
75139;SDS011;63714;55.812;37.658;2023-04-25T20:37:38;4.13;;;2.35;;
75139;SDS011;63714;55.812;37.658;2023-04-25T20:40:04;5.18;;;2.55;;
75139;SDS011;63714;55.812;37.658;2023-04-25T20:42:32;4.78;;;2.50;;
75139;SDS011;63714;55.812;37.658;2023-04-25T20:44:58;5.10;;;2.83;;
75139;SDS011;63714;55.812;37.658;2023-04-25T20:47:25;7.05;;;2.75;;
75139;SDS011;63714;55.812;37.658;2023-04-25T20:49:54;5.18;;;2.50;;
75139;SDS011;63714;55.812;37.658;2023-04-25T20:52:22;5.20;;;3.03;;
75139;SDS011;63714;55.812;37.658;2023-04-25T20:54:48;5.80;;;2.70;;
75139;SDS011;63714;55.812;37.658;2023-04-25T20:59:41;6.10;;;2.67;;
75139;SDS011;63714;55.812;37.658;2023-04-25T21:02:08;4.72;;;2.30;;
75139;SDS011;63714;55.812;37.658;2023-04-25T21:04:37;4.45;;;2.85;;
75139;SDS011;63714;55.812;37.658;2023-04-25T21:07:02;3.75;;;2.88;;
75139;SDS011;63714;55.812;37.658;2023-04-25T21:09:28;4.72;;;2.65;;
75139;SDS011;63714;55.812;37.658;2023-04-25T21:11:54;5.25;;;2.35;;
75139;SDS011;63714;55.812;37.658;2023-04-25T21:14:19;7.00;;;2.65;;
75139;SDS011;63714;55.812;37.658;2023-04-25T21:16:46;5.40;;;3.67;;
75139;SDS011;63714;55.812;37.658;2023-04-25T21:19:12;4.47;;;3.00;;
75139;SDS011;63714;55.812;37.658;2023-04-25T21:21:38;4.95;;;2.63;;
75139;SDS011;63714;55.812;37.658;2023-04-25T21:24:03;5.45;;;2.70;;
75139;SDS011;63714;55.812;37.658;2023-04-25T21:26:29;4.97;;;2.58;;
75139;SDS011;63714;55.812;37.658;2023-04-25T21:28:55;5.47;;;2.60;;
75139;SDS011;63714;55.812;37.658;2023-04-25T21:31:21;3.63;;;2.30;;
75139;SDS011;63714;55.812;37.658;2023-04-25T21:33:47;3.63;;;2.50;;
75139;SDS011;63714;55.812;37.658;2023-04-25T21:36:12;5.72;;;3.05;;
75139;SDS011;63714;55.812;37.658;2023-04-25T21:38:38;5.03;;;2.88;;
75139;SDS011;63714;55.812;37.658;2023-04-25T21:41:03;5.85;;;2.97;;
75139;SDS011;63714;55.812;37.658;2023-04-25T21:43:29;5.65;;;2.90;;
75139;SDS011;63714;55.812;37.658;2023-04-25T21:45:55;5.47;;;3.15;;
75139;SDS011;63714;55.812;37.658;2023-04-25T21:48:20;4.55;;;2.83;;
75139;SDS011;63714;55.812;37.658;2023-04-25T21:50:46;6.25;;;3.35;;
75139;SDS011;63714;55.812;37.658;2023-04-25T21:53:11;4.65;;;2.75;;
75139;SDS011;63714;55.812;37.658;2023-04-25T21:55:37;6.60;;;3.20;;
75139;SDS011;63714;55.812;37.658;2023-04-25T21:58:02;4.80;;;2.65;;
75139;SDS011;63714;55.812;37.658;2023-04-25T22:00:28;4.03;;;2.85;;
75139;SDS011;63714;55.812;37.658;2023-04-25T22:02:56;4.78;;;2.85;;
75139;SDS011;63714;55.812;37.658;2023-04-25T22:05:22;3.53;;;2.97;;
75139;SDS011;63714;55.812;37.658;2023-04-25T22:07:51;7.07;;;3.58;;
75139;SDS011;63714;55.812;37.658;2023-04-25T22:10:19;3.63;;;2.95;;
75139;SDS011;63714;55.812;37.658;2023-04-25T22:12:45;4.28;;;2.60;;
75139;SDS011;63714;55.812;37.658;2023-04-25T22:15:15;4.68;;;2.78;;
75139;SDS011;63714;55.812;37.658;2023-04-25T22:17:44;4.53;;;3.00;;
75139;SDS011;63714;55.812;37.658;2023-04-25T22:20:10;5.28;;;2.95;;
75139;SDS011;63714;55.812;37.658;2023-04-25T22:25:07;5.60;;;3.22;;
75139;SDS011;63714;55.812;37.658;2023-04-25T22:27:33;4.95;;;2.80;;
75139;SDS011;63714;55.812;37.658;2023-04-25T22:30:00;4.78;;;3.22;;
75139;SDS011;63714;55.812;37.658;2023-04-25T22:32:26;5.47;;;2.83;;
75139;SDS011;63714;55.812;37.658;2023-04-25T22:34:51;6.47;;;3.20;;
75139;SDS011;63714;55.812;37.658;2023-04-25T22:37:17;5.45;;;2.90;;
75139;SDS011;63714;55.812;37.658;2023-04-25T22:39:43;7.30;;;3.30;;
75139;SDS011;63714;55.812;37.658;2023-04-25T22:42:08;7.20;;;3.40;;
75139;SDS011;63714;55.812;37.658;2023-04-25T22:44:34;5.50;;;4.45;;
75139;SDS011;63714;55.812;37.658;2023-04-25T22:46:59;6.68;;;5.20;;
75139;SDS011;63714;55.812;37.658;2023-04-25T22:49:25;4.28;;;3.45;;
75139;SDS011;63714;55.812;37.658;2023-04-25T22:51:51;4.80;;;3.88;;
75139;SDS011;63714;55.812;37.658;2023-04-25T22:54:20;3.38;;;2.97;;
75139;SDS011;63714;55.812;37.658;2023-04-25T22:56:46;4.63;;;3.10;;
75139;SDS011;63714;55.812;37.658;2023-04-25T22:59:11;4.85;;;3.40;;
75139;SDS011;63714;55.812;37.658;2023-04-25T23:01:37;6.13;;;4.22;;
75139;SDS011;63714;55.812;37.658;2023-04-25T23:04:03;4.85;;;3.25;;
75139;SDS011;63714;55.812;37.658;2023-04-25T23:06:29;3.65;;;2.92;;
75139;SDS011;63714;55.812;37.658;2023-04-25T23:08:55;4.22;;;3.63;;
75139;SDS011;63714;55.812;37.658;2023-04-25T23:11:20;4.75;;;3.17;;
75139;SDS011;63714;55.812;37.658;2023-04-25T23:13:47;5.10;;;3.25;;
75139;SDS011;63714;55.812;37.658;2023-04-25T23:16:13;3.55;;;3.17;;
75139;SDS011;63714;55.812;37.658;2023-04-25T23:18:39;5.22;;;3.20;;
75139;SDS011;63714;55.812;37.658;2023-04-25T23:21:05;5.47;;;3.30;;
75139;SDS011;63714;55.812;37.658;2023-04-25T23:23:33;5.60;;;2.70;;
75139;SDS011;63714;55.812;37.658;2023-04-25T23:26:04;7.20;;;3.17;;
75139;SDS011;63714;55.812;37.658;2023-04-25T23:28:33;6.00;;;3.10;;
75139;SDS011;63714;55.812;37.658;2023-04-25T23:31:09;5.03;;;2.95;;
75139;SDS011;63714;55.812;37.658;2023-04-25T23:33:36;5.65;;;3.50;;
75139;SDS011;63714;55.812;37.658;2023-04-25T23:36:01;7.30;;;3.50;;
75139;SDS011;63714;55.812;37.658;2023-04-25T23:38:27;5.50;;;3.20;;
75139;SDS011;63714;55.812;37.658;2023-04-25T23:40:53;5.22;;;3.17;;
75139;SDS011;63714;55.812;37.658;2023-04-25T23:43:19;4.65;;;3.38;;
75139;SDS011;63714;55.812;37.658;2023-04-25T23:45:44;5.75;;;3.00;;
75139;SDS011;63714;55.812;37.658;2023-04-25T23:48:11;4.70;;;2.90;;
75139;SDS011;63714;55.812;37.658;2023-04-25T23:50:37;5.60;;;3.42;;
75139;SDS011;63714;55.812;37.658;2023-04-25T23:53:02;3.95;;;2.80;;
75139;SDS011;63714;55.812;37.658;2023-04-25T23:55:28;4.13;;;3.35;;
75139;SDS011;63714;55.812;37.658;2023-04-25T23:57:55;5.18;;;3.08;;
